Kine — C6WT4 — position and weather

sailwx.info

Track history (hours):
 
Tides and Currents Weather Stations Pressure Air Temp Water Temp Dewpoint Dewpoint Depression Visibility Wind Speed Wind Dir Waves Ship Positions

Kine

Last reported at 2016-Sep-25 00:33 UTC. Time now 2016-Sep-29 00:01 UTC.
Position N 63°23' E 007°26'.

Length 89 m; draft 4.9 m.

Type: Cargo ship. MMSI: 311117000.

Date/timePositionNaut miles runAvg speedWind from/ knotsBaromVisibWave heightAir tempDewpointWater temp
2016-Sep-25 00:33N 63°23' E 007°26'18 8.9
2016-Sep-24 22:33N 63°08' E 007°04'243 9.0
2016-Sep-23 19:33N 59°12' E 005°04'16 8.1
2016-Sep-23 17:33N 59°05' E 005°33'4 3.8
2016-Sep-23 16:28N 59°01' E 005°37'0 0.0
2016-Sep-23 15:28N 59°01' E 005°37'0 0.0
2016-Sep-23 13:31N 59°01' E 005°37'0 0.0
2016-Sep-23 09:31N 59°01' E 005°37'0 0.0
2016-Sep-23 06:31N 59°01' E 005°37'0 0.0
2016-Sep-23 04:31N 59°01' E 005°37'0 0.0
2016-Sep-23 03:28N 59°01' E 005°37'0 0.0
2016-Sep-23 02:31N 59°01' E 005°37'0 0.0
2016-Sep-23 01:31N 59°01' E 005°37'0 0.0
2016-Sep-23 00:31N 59°01' E 005°37'0 0.0
2016-Sep-22 23:33N 59°01' E 005°37'6 2.1
2016-Sep-22 20:33N 58°57' E 005°45'0 0.0
2016-Sep-22 12:30N 58°57' E 005°45'0 0.0
2016-Sep-22 04:33N 58°57' E 005°45'0 0.0
2016-Sep-22 03:33N 58°57' E 005°45'0 0.0
2016-Sep-22 00:33N 58°57' E 005°45'0 0.0
2016-Sep-21 23:33N 58°57' E 005°45'0 0.0
2016-Sep-21 22:33N 58°57' E 005°45'0 0.0
2016-Sep-21 19:33N 58°57' E 005°45'0 0.0
2016-Sep-21 16:33N 58°57' E 005°45'0 0.0
2016-Sep-21 09:33N 58°57' E 005°45'0 0.0
2016-Sep-21 08:33N 58°57' E 005°45'0 0.0
2016-Sep-21 03:33N 58°57' E 005°45'0 0.0
2016-Sep-21 02:33N 58°57' E 005°45'16 1.8
2016-Sep-20 17:33N 58°44' E 005°27'17 5.5
2016-Sep-20 14:30N 58°29' E 005°42'8 8.4
2016-Sep-20 13:33N 58°23' E 005°53'29 9.7
2016-Sep-20 10:33N 58°03' E 006°34'75 9.4
2016-Sep-20 02:32N 58°18' E 008°54'3110.3
2016-Sep-19 23:33N 58°35' E 009°42'37 9.3
2016-Sep-19 19:33N 58°59' E 010°38'8 8.2
2016-Sep-19 18:33N 59°01' E 010°54'16 7.6
2016-Sep-19 16:29N 59°06' E 011°22'  
2016-Sep-17 10:33N 59°07' E 011°04'7 7.3
2016-Sep-17 09:33N 59°14' E 010°59'4 3.6
2016-Sep-17 08:25N 59°16' E 011°05'0 0.0
2016-Sep-17 04:31N 59°16' E 011°05'0 0.0
2016-Sep-17 00:28N 59°16' E 011°05'31 4.5
2016-Sep-16 17:33N 58°57' E 010°17'16 7.7
2016-Sep-16 15:33N 58°59' E 009°47'25 0.9
2016-Sep-15 12:33N 58°38' E 009°20'8 8.5
2016-Sep-15 11:33N 58°32' E 009°09'79 7.9
2016-Sep-15 01:33N 57°59' E 006°52'  
Track history (hours):
 
Tides and Currents Weather Stations Pressure Air Temp Water Temp Dewpoint Dewpoint Depression Visibility Wind Speed Wind Dir Waves Ship Positions

Kine

Last reported at 2016-Sep-25 00:33 UTC. Time now 2016-Sep-29 00:01 UTC.
Position N 63°23' E 007°26'.

Length 89 m; draft 4.9 m.

Type: Cargo ship. MMSI: 311117000.

Date/timePositionNaut miles runAvg speedWind from/ knotsBaromVisibWave heightAir tempDewpointWater temp
2016-Sep-25 00:33N 63°23' E 007°26'18 8.9
2016-Sep-24 22:33N 63°08' E 007°04'243 9.0
2016-Sep-23 19:33N 59°12' E 005°04'16 8.1
2016-Sep-23 17:33N 59°05' E 005°33'4 3.8
2016-Sep-23 16:28N 59°01' E 005°37'0 0.0
2016-Sep-23 15:28N 59°01' E 005°37'0 0.0
2016-Sep-23 13:31N 59°01' E 005°37'0 0.0
2016-Sep-23 09:31N 59°01' E 005°37'0 0.0
2016-Sep-23 06:31N 59°01' E 005°37'0 0.0
2016-Sep-23 04:31N 59°01' E 005°37'0 0.0
2016-Sep-23 03:28N 59°01' E 005°37'0 0.0
2016-Sep-23 02:31N 59°01' E 005°37'0 0.0
2016-Sep-23 01:31N 59°01' E 005°37'0 0.0
2016-Sep-23 00:31N 59°01' E 005°37'0 0.0
2016-Sep-22 23:33N 59°01' E 005°37'6 2.1
2016-Sep-22 20:33N 58°57' E 005°45'0 0.0
2016-Sep-22 12:30N 58°57' E 005°45'0 0.0
2016-Sep-22 04:33N 58°57' E 005°45'0 0.0
2016-Sep-22 03:33N 58°57' E 005°45'0 0.0
2016-Sep-22 00:33N 58°57' E 005°45'0 0.0
2016-Sep-21 23:33N 58°57' E 005°45'0 0.0
2016-Sep-21 22:33N 58°57' E 005°45'0 0.0
2016-Sep-21 19:33N 58°57' E 005°45'0 0.0
2016-Sep-21 16:33N 58°57' E 005°45'0 0.0
2016-Sep-21 09:33N 58°57' E 005°45'0 0.0
2016-Sep-21 08:33N 58°57' E 005°45'0 0.0
2016-Sep-21 03:33N 58°57' E 005°45'0 0.0
2016-Sep-21 02:33N 58°57' E 005°45'16 1.8
2016-Sep-20 17:33N 58°44' E 005°27'17 5.5
2016-Sep-20 14:30N 58°29' E 005°42'8 8.4
2016-Sep-20 13:33N 58°23' E 005°53'29 9.7
2016-Sep-20 10:33N 58°03' E 006°34'75 9.4
2016-Sep-20 02:32N 58°18' E 008°54'3110.3
2016-Sep-19 23:33N 58°35' E 009°42'37 9.3
2016-Sep-19 19:33N 58°59' E 010°38'8 8.2
2016-Sep-19 18:33N 59°01' E 010°54'16 7.6
2016-Sep-19 16:29N 59°06' E 011°22'  
2016-Sep-17 10:33N 59°07' E 011°04'7 7.3
2016-Sep-17 09:33N 59°14' E 010°59'4 3.6
2016-Sep-17 08:25N 59°16' E 011°05'0 0.0
2016-Sep-17 04:31N 59°16' E 011°05'0 0.0
2016-Sep-17 00:28N 59°16' E 011°05'31 4.5
2016-Sep-16 17:33N 58°57' E 010°17'16 7.7
2016-Sep-16 15:33N 58°59' E 009°47'25 0.9
2016-Sep-15 12:33N 58°38' E 009°20'8 8.5
2016-Sep-15 11:33N 58°32' E 009°09'79 7.9
2016-Sep-15 01:33N 57°59' E 006°52'  

Dump ship's entire track history